createdAt,value
2018-03-21T00:00:05.860Z,69.44
2018-03-21T00:01:16.041Z,69.44
2018-03-21T00:02:26.180Z,69.34
2018-03-21T00:03:36.063Z,69.15
2018-03-21T00:04:45.692Z,69.44
2018-03-21T00:05:55.447Z,69.53
2018-03-21T00:07:05.445Z,69.72
2018-03-21T00:08:15.630Z,69.63
2018-03-21T00:09:25.837Z,69.63
2018-03-21T00:10:37.047Z,69.82
2018-03-21T00:11:46.904Z,69.63
2018-03-21T00:12:57.036Z,70.2
2018-03-21T00:14:08.151Z,70.1
2018-03-21T00:15:18.035Z,70.1
2018-03-21T00:16:28.155Z,70.01
2018-03-21T00:17:38.308Z,70.2
2018-03-21T00:18:48.473Z,70.48
2018-03-21T00:19:58.780Z,70.1
2018-03-21T00:21:08.276Z,70.57
2018-03-21T00:22:18.166Z,70.57
2018-03-21T00:23:28.041Z,70.39
2018-03-21T00:24:37.642Z,70.39
2018-03-21T00:25:47.833Z,70.29
2018-03-21T00:26:57.710Z,70.39
2018-03-21T00:28:07.586Z,70.1
2018-03-21T00:29:17.673Z,70.29
2018-03-21T00:30:27.559Z,70.01
2018-03-21T00:31:37.322Z,70.29
2018-03-21T00:32:47.646Z,70.48
2018-03-21T00:33:57.661Z,71.23
2018-03-21T00:35:07.466Z,70.67
2018-03-21T00:36:17.319Z,70.67
2018-03-21T00:37:27.446Z,70.76
2018-03-21T00:38:37.610Z,70.76
2018-03-21T00:39:47.507Z,70.86
2018-03-21T00:40:57.619Z,70.86
2018-03-21T00:42:07.740Z,70.57
2018-03-21T00:43:17.595Z,71.14
2018-03-21T00:44:27.730Z,70.76
2018-03-21T00:45:37.592Z,71.04
2018-03-21T00:46:47.464Z,71.23
2018-03-21T00:47:57.774Z,71.33
2018-03-21T00:49:07.976Z,71.33
2018-03-21T00:50:17.905Z,71.23
2018-03-21T00:51:28.028Z,71.23
2018-03-21T00:52:38.185Z,71.52
2018-03-21T00:53:48.083Z,71.42
2018-03-21T00:54:59.172Z,71.23
2018-03-21T00:56:09.298Z,71.33
2018-03-21T00:57:19.407Z,71.04
2018-03-21T00:58:29.278Z,71.14
2018-03-21T00:59:39.572Z,71.42
2018-03-21T01:00:49.803Z,71.8
2018-03-21T01:01:59.585Z,71.71
2018-03-21T01:03:09.728Z,71.71
2018-03-21T01:04:19.626Z,71.52
2018-03-21T01:05:29.781Z,71.71
2018-03-21T01:06:40.048Z,71.71
2018-03-21T01:07:50.150Z,71.71
2018-03-21T01:09:01.362Z,71.61
2018-03-21T01:10:11.259Z,71.61
2018-03-21T01:11:21.396Z,71.61
2018-03-21T01:12:31.501Z,71.52
2018-03-21T01:13:41.643Z,71.71
2018-03-21T01:14:51.786Z,71.71
2018-03-21T01:16:01.986Z,71.52
2018-03-21T01:17:12.099Z,71.61
2018-03-21T01:18:22.229Z,71.8
2018-03-21T01:19:33.057Z,71.61
2018-03-21T01:20:42.961Z,71.71
2018-03-21T01:21:53.075Z,71.71
2018-03-21T01:23:02.973Z,71.9
2018-03-21T01:24:13.114Z,71.9
2018-03-21T01:25:23.231Z,71.8
2018-03-21T01:26:33.017Z,71.61
2018-03-21T01:27:42.661Z,71.61
2018-03-21T01:28:51.940Z,72.09
2018-03-21T01:30:01.797Z,71.99
2018-03-21T01:31:12.105Z,71.71
2018-03-21T01:32:22.296Z,72.37
2018-03-21T01:33:32.433Z,72.47
2018-03-21T01:34:42.384Z,72.18
2018-03-21T01:35:52.493Z,72.05
2018-03-21T01:37:02.626Z,72.05
2018-03-21T01:38:12.883Z,72.09
2018-03-21T01:39:23.228Z,72.09
2018-03-21T01:40:33.409Z,72.66
2018-03-21T01:41:44.605Z,72.28
2018-03-21T01:42:54.462Z,72.43
2018-03-21T01:44:04.057Z,72.43
2018-03-21T01:45:13.851Z,72.62
2018-03-21T01:46:23.552Z,72.52
2018-03-21T01:47:33.794Z,72.71
2018-03-21T01:48:43.922Z,72.99
2018-03-21T01:49:54.071Z,72.99
2018-03-21T01:51:04.058Z,72.62
2018-03-21T01:52:13.812Z,72.9
2018-03-21T01:53:23.975Z,72.8
2018-03-21T01:54:33.471Z,72.99
2018-03-21T01:55:43.643Z,72.9
2018-03-21T01:56:53.750Z,73.28
2018-03-21T01:58:03.688Z,72.8
2018-03-21T01:59:13.620Z,72.9
2018-03-21T02:00:23.729Z,73.09
2018-03-21T02:01:34.202Z,72.9
2018-03-21T02:02:44.317Z,72.75
2018-03-21T02:03:54.506Z,72.99
2018-03-21T02:05:04.419Z,72.99
2018-03-21T02:06:13.929Z,73.09
2018-03-21T02:07:24.135Z,72.8
2018-03-21T02:08:34.359Z,72.99
2018-03-21T02:09:44.553Z,72.99
2018-03-21T02:10:54.725Z,73.47
2018-03-21T02:12:04.576Z,73.47
2018-03-21T02:13:14.425Z,73.37
2018-03-21T02:14:24.563Z,73.47
2018-03-21T02:15:34.744Z,73.09
2018-03-21T02:16:45.019Z,73.37
2018-03-21T02:17:54.805Z,73.37
2018-03-21T02:19:04.558Z,73.47
2018-03-21T02:20:14.652Z,73.66
2018-03-21T02:21:24.435Z,73.09
2018-03-21T02:22:34.031Z,73.18
2018-03-21T02:23:44.263Z,73.18
2018-03-21T02:24:54.484Z,73.47
2018-03-21T02:26:04.338Z,73.47
2018-03-21T02:27:13.972Z,73.37
2018-03-21T02:28:23.867Z,72.99
2018-03-21T02:29:33.981Z,73.75
2018-03-21T02:30:43.856Z,73.85
2018-03-21T02:31:53.720Z,73.75
2018-03-21T02:33:03.671Z,73.18
2018-03-21T02:34:13.939Z,73.66
2018-03-21T02:35:24.136Z,73.28
2018-03-21T02:36:34.328Z,73.28
2018-03-21T02:37:44.487Z,73.28
2018-03-21T02:38:54.632Z,73.56
2018-03-21T02:40:04.457Z,73.56
2018-03-21T02:41:14.729Z,73.47
2018-03-21T02:42:24.248Z,73.47
2018-03-21T02:43:34.008Z,73.66
2018-03-21T02:44:44.392Z,73.85
2018-03-21T02:45:54.549Z,73.75
2018-03-21T02:47:04.763Z,73.85
2018-03-21T02:48:14.378Z,73.85
2018-03-21T02:49:24.305Z,73.75
2018-03-21T02:50:34.435Z,73.56
2018-03-21T02:51:44.725Z,73.75
2018-03-21T02:52:54.914Z,74.13
2018-03-21T02:54:05.090Z,74.13
2018-03-21T02:55:14.979Z,74.04
2018-03-21T02:56:25.094Z,73.94
2018-03-21T02:57:35.235Z,73.75
2018-03-21T02:58:45.158Z,73.85
2018-03-21T02:59:55.323Z,73.66
2018-03-21T03:01:05.562Z,74.04
2018-03-21T03:02:15.703Z,74.13
2018-03-21T03:03:25.580Z,74.32
2018-03-21T03:04:35.440Z,74.22
2018-03-21T03:05:45.036Z,74.69
2018-03-21T03:06:55.146Z,74.6
2018-03-21T03:08:05.074Z,74.98
2018-03-21T03:09:14.419Z,74.79
2018-03-21T03:10:24.544Z,74.88
2018-03-21T03:11:34.396Z,75.07
2018-03-21T03:12:44.352Z,75.07
2018-03-21T03:13:53.964Z,74.98
2018-03-21T03:15:04.074Z,75.45
2018-03-21T03:16:14.184Z,75.64
2018-03-21T03:17:24.034Z,75.36
2018-03-21T03:18:34.156Z,75.26
2018-03-21T03:19:44.279Z,75.17
2018-03-21T03:20:53.625Z,75.26
2018-03-21T03:22:03.579Z,75.36
2018-03-21T03:23:13.456Z,75.55
2018-03-21T03:24:22.986Z,75.36
2018-03-21T03:25:32.903Z,75.45
2018-03-21T03:26:42.750Z,75.36
2018-03-21T03:27:52.877Z,75.36
2018-03-21T03:29:02.763Z,75.07
2018-03-21T03:30:12.867Z,75.36
2018-03-21T03:31:22.759Z,75.55
2018-03-21T03:32:32.938Z,75.36
2018-03-21T03:33:42.831Z,75.26
2018-03-21T03:34:52.931Z,75.45
2018-03-21T03:36:02.880Z,75.55
2018-03-21T03:37:12.724Z,74.98
2018-03-21T03:38:22.585Z,74.88
2018-03-21T03:39:32.744Z,75.07
2018-03-21T03:40:42.614Z,74.79
2018-03-21T03:41:52.729Z,74.79
2018-03-21T03:43:02.608Z,74.88
2018-03-21T03:44:12.495Z,74.88
2018-03-21T03:45:22.356Z,74.98
2018-03-21T03:46:32.464Z,75.26
2018-03-21T03:47:42.656Z,75.45
2018-03-21T03:48:52.857Z,75.17
2018-03-21T03:50:03.139Z,75.26
2018-03-21T03:51:13.367Z,75.26
2018-03-21T03:52:23.231Z,75.26
2018-03-21T03:53:33.332Z,75.26
2018-03-21T03:54:43.539Z,75.26
2018-03-21T03:55:53.739Z,75.17
2018-03-21T03:57:03.977Z,75.26
2018-03-21T03:58:13.967Z,75.17
2018-03-21T03:59:24.111Z,75.26
2018-03-21T04:00:34.251Z,75.17
2018-03-21T04:01:44.361Z,75.26
2018-03-21T04:02:54.183Z,75.26
2018-03-21T04:04:04.036Z,75.07
2018-03-21T04:05:13.912Z,75.45
2018-03-21T04:06:24.037Z,75.45
2018-03-21T04:07:33.671Z,75.45
2018-03-21T04:08:43.808Z,75.26
2018-03-21T04:09:53.676Z,75.36
2018-03-21T04:11:03.511Z,75.26
2018-03-21T04:12:13.648Z,75.36
2018-03-21T04:13:23.236Z,75.36
2018-03-21T04:14:33.015Z,75.17
2018-03-21T04:15:43.128Z,75.26
2018-03-21T04:16:53.290Z,75.36
2018-03-21T04:18:03.677Z,75.17
2018-03-21T04:19:13.787Z,75.26
2018-03-21T04:20:23.989Z,75.36
2018-03-21T04:21:33.838Z,75.45
2018-03-21T04:22:43.727Z,75.17
2018-03-21T04:23:53.709Z,75.17
2018-03-21T04:25:03.584Z,75.26
2018-03-21T04:26:13.691Z,75.36
2018-03-21T04:27:23.947Z,75.17
2018-03-21T04:28:34.084Z,75.17
2018-03-21T04:29:44.472Z,75.26
2018-03-21T04:30:54.596Z,75.45
2018-03-21T04:32:04.185Z,75.26
2018-03-21T04:33:14.131Z,75.36
2018-03-21T04:34:24.320Z,74.98
2018-03-21T04:35:34.759Z,75.07
2018-03-21T04:36:44.521Z,75.17
2018-03-21T04:37:54.657Z,75.17
2018-03-21T04:39:04.457Z,75.36
2018-03-21T04:40:14.465Z,75.36
2018-03-21T04:41:24.649Z,75.17
2018-03-21T04:42:34.795Z,75.17
2018-03-21T04:43:44.992Z,75.45
2018-03-21T04:44:55.391Z,75.17
2018-03-21T04:46:05.244Z,75.45
2018-03-21T04:47:15.363Z,75.64
2018-03-21T04:48:25.490Z,75.64
2018-03-21T04:49:35.638Z,75.17
2018-03-21T04:50:45.851Z,75.36
2018-03-21T04:51:56.042Z,75.45
2018-03-21T04:53:05.902Z,75.64
2018-03-21T04:54:15.758Z,75.55
2018-03-21T04:55:25.617Z,75.36
2018-03-21T04:56:35.480Z,75.36
2018-03-21T04:57:45.822Z,75.36
2018-03-21T04:58:56.076Z,75.36
2018-03-21T05:00:05.927Z,75.45
2018-03-21T05:01:15.971Z,75.55
2018-03-21T05:02:26.119Z,75.55
2018-03-21T05:03:36.025Z,75.55
2018-03-21T05:04:46.205Z,75.64
2018-03-21T05:05:56.422Z,75.64
2018-03-21T05:07:06.646Z,75.36
2018-03-21T05:08:16.771Z,75.36
2018-03-21T05:09:26.697Z,75.36
2018-03-21T05:10:36.827Z,75.45
2018-03-21T05:11:46.990Z,75.26
2018-03-21T05:12:57.200Z,75.45
2018-03-21T05:14:07.389Z,75.55
2018-03-21T05:15:17.235Z,75.17
2018-03-21T05:16:27.364Z,75.17
2018-03-21T05:17:37.585Z,75.83
2018-03-21T05:18:47.771Z,75.17
2018-03-21T05:19:58.092Z,75.36
2018-03-21T05:21:08.310Z,75.17
2018-03-21T05:22:18.160Z,75.55
2018-03-21T05:23:28.274Z,75.36
2018-03-21T05:24:38.419Z,75.26
2018-03-21T05:25:48.546Z,75.26
2018-03-21T05:26:58.684Z,75.07
2018-03-21T05:28:08.805Z,75.26
2018-03-21T05:29:18.937Z,75.17
2018-03-21T05:30:29.089Z,75.17
2018-03-21T05:31:39.229Z,75.26
2018-03-21T05:32:49.117Z,75.36
2018-03-21T05:33:59.009Z,75.26
2018-03-21T05:35:09.117Z,75.26
2018-03-21T05:36:20.304Z,75.07
2018-03-21T05:37:30.455Z,75.07
2018-03-21T05:38:40.696Z,75.26
2018-03-21T05:39:50.683Z,75.36
2018-03-21T05:41:00.293Z,75.26
2018-03-21T05:42:09.855Z,75.26
2018-03-21T05:43:19.460Z,75.07
2018-03-21T05:44:29.631Z,75.45
2018-03-21T05:45:40.077Z,75.64
2018-03-21T05:46:50.266Z,75.45
2018-03-21T05:48:00.260Z,75.26
2018-03-21T05:49:10.514Z,75.26
2018-03-21T05:50:20.388Z,75.45
2018-03-21T05:51:30.242Z,75.26
2018-03-21T05:52:40.437Z,75.17
2018-03-21T05:53:50.652Z,75.26
2018-03-21T05:55:00.800Z,75.07
2018-03-21T05:56:10.946Z,75.26
2018-03-21T05:57:21.069Z,75.17
2018-03-21T05:58:31.187Z,75.26
2018-03-21T05:59:40.809Z,75.36
2018-03-21T06:00:51.031Z,75.36
2018-03-21T06:02:00.916Z,75.26
2018-03-21T06:03:10.794Z,75.55
2018-03-21T06:04:20.976Z,75.36
2018-03-21T06:05:30.973Z,75.45
2018-03-21T06:06:41.128Z,74.98
2018-03-21T06:07:51.273Z,75.07
2018-03-21T06:09:01.479Z,75.07
2018-03-21T06:10:11.681Z,74.88
2018-03-21T06:11:21.603Z,74.6
2018-03-21T06:12:31.781Z,74.79
2018-03-21T06:13:41.906Z,75.07
2018-03-21T06:14:51.785Z,74.88
2018-03-21T06:16:01.608Z,74.88
2018-03-21T06:17:11.735Z,74.69
2018-03-21T06:18:21.584Z,74.88
2018-03-21T06:19:31.734Z,74.79
2018-03-21T06:20:41.861Z,74.79
2018-03-21T06:21:52.086Z,74.98
2018-03-21T06:23:02.066Z,74.79
2018-03-21T06:24:11.654Z,74.79
2018-03-21T06:25:22.448Z,74.74
2018-03-21T06:26:31.968Z,74.74
2018-03-21T06:27:41.567Z,75.02
2018-03-21T06:28:51.688Z,75.02
2018-03-21T06:30:01.877Z,74.83
2018-03-21T06:31:11.635Z,74.83
2018-03-21T06:32:21.131Z,75.02
2018-03-21T06:33:31.382Z,74.64
2018-03-21T06:34:41.529Z,74.93
2018-03-21T06:35:51.299Z,74.45
2018-03-21T06:37:01.485Z,73.98
2018-03-21T06:38:11.362Z,73.6
2018-03-21T06:39:21.480Z,74.07
2018-03-21T06:40:31.624Z,73.98
2018-03-21T06:41:41.762Z,73.88
2018-03-21T06:42:52.029Z,73.69
2018-03-21T06:44:01.961Z,73.69
2018-03-21T06:45:12.158Z,73.41
2018-03-21T06:46:22.333Z,73.69
2018-03-21T06:47:31.962Z,73.88
2018-03-21T06:48:42.207Z,73.41
2018-03-21T06:49:52.486Z,73.41
2018-03-21T06:51:02.449Z,73.13
2018-03-21T06:52:12.564Z,73.5
2018-03-21T06:53:22.682Z,73.73
2018-03-21T06:54:32.785Z,73.35
2018-03-21T06:55:42.950Z,73.32
2018-03-21T06:56:53.071Z,73.45
2018-03-21T06:58:03.146Z,73.54
2018-03-21T06:59:12.663Z,73.45
2018-03-21T07:00:22.604Z,73.54
2018-03-21T07:01:32.909Z,73.64
2018-03-21T07:02:43.045Z,73.45
2018-03-21T07:03:53.273Z,73.07
2018-03-21T07:05:03.482Z,73.35
2018-03-21T07:06:13.386Z,73.07
2018-03-21T07:07:23.132Z,73.45
2018-03-21T07:08:33.121Z,73.07
2018-03-21T07:09:43.041Z,73.07
2018-03-21T07:10:53.318Z,72.88
2018-03-21T07:12:03.468Z,72.88
2018-03-21T07:13:12.971Z,73.07
2018-03-21T07:14:23.173Z,72.88
2018-03-21T07:15:33.042Z,72.5
2018-03-21T07:16:42.916Z,72.6
2018-03-21T07:17:53.073Z,72.41
2018-03-21T07:19:02.936Z,72.31
2018-03-21T07:20:13.044Z,72.22
2018-03-21T07:21:22.958Z,72.34
2018-03-21T07:22:33.378Z,72.34
2018-03-21T07:23:43.531Z,72.16
2018-03-21T07:24:53.492Z,71.69
2018-03-21T07:26:03.593Z,71.88
2018-03-21T07:27:13.750Z,71.5
2018-03-21T07:28:23.878Z,71.78
2018-03-21T07:29:33.513Z,71.5
2018-03-21T07:30:44.610Z,71.4
2018-03-21T07:31:54.148Z,71.31
2018-03-21T07:33:03.828Z,71.21
2018-03-21T07:34:14.038Z,71.12
2018-03-21T07:35:24.303Z,70.55
2018-03-21T07:36:33.646Z,71.12
2018-03-21T07:37:43.509Z,70.83
2018-03-21T07:38:53.663Z,70.64
2018-03-21T07:40:03.799Z,70.83
2018-03-21T07:41:13.780Z,70.58
2018-03-21T07:42:23.891Z,70.49
2018-03-21T07:43:34.084Z,70.49
2018-03-21T07:44:43.836Z,70.11
2018-03-21T07:45:53.750Z,69.64
2018-03-21T07:47:03.344Z,69.26
2018-03-21T07:48:13.194Z,69.57
2018-03-21T07:49:23.573Z,68.44
2018-03-21T07:50:33.757Z,68.35
2018-03-21T07:51:43.437Z,68.06
2018-03-21T07:52:53.301Z,67.81
2018-03-21T07:54:03.437Z,67.24
2018-03-21T07:55:13.038Z,66.1
2018-03-21T07:56:23.161Z,65.56
2018-03-21T07:57:32.487Z,64.9
2018-03-21T07:58:42.470Z,64.62
2018-03-21T07:59:51.952Z,64.33
2018-03-21T08:01:01.841Z,64.08
2018-03-21T08:02:11.720Z,63.23
2018-03-21T08:03:21.904Z,62.66
2018-03-21T08:04:31.688Z,61.74
2018-03-21T08:05:41.604Z,61.93
2018-03-21T08:06:51.729Z,60.98
2018-03-21T08:08:01.928Z,59.55
2018-03-21T08:09:11.851Z,59.11
2018-03-21T08:10:22.098Z,57.52
2018-03-21T08:11:32.240Z,55.01
2018-03-21T08:12:41.765Z,53.7
2018-03-21T08:13:51.439Z,52.59
2018-03-21T08:15:01.105Z,52.42
2018-03-21T08:16:10.989Z,51.47
2018-03-21T08:17:21.101Z,50.63
2018-03-21T08:18:30.966Z,49.33
2018-03-21T08:19:40.672Z,48.66
2018-03-21T08:20:50.556Z,47.54
2018-03-21T08:22:00.431Z,46.03
2018-03-21T08:23:10.589Z,45.67
2018-03-21T08:24:20.784Z,44.91
2018-03-21T08:25:30.850Z,44.17
2018-03-21T08:26:41.025Z,42.54
2018-03-21T08:27:50.909Z,42.16
2018-03-21T08:29:01.199Z,41.51
2018-03-21T08:30:11.264Z,40.84
2018-03-21T08:31:21.047Z,40.29
2018-03-21T08:32:31.192Z,39.33
2018-03-21T08:33:41.115Z,39.06
2018-03-21T08:34:51.258Z,38.39
2018-03-21T08:36:00.873Z,38.39
2018-03-21T08:37:10.485Z,38.12
2018-03-21T08:38:20.720Z,36.79
2018-03-21T08:39:30.601Z,36.49
2018-03-21T08:40:40.545Z,35.25
2018-03-21T08:41:50.425Z,34.77
2018-03-21T08:43:00.277Z,34.47
2018-03-21T08:44:10.428Z,34.83
2018-03-21T08:45:20.322Z,34.81
2018-03-21T08:46:30.221Z,35.2
2018-03-21T08:47:40.365Z,35.39
2018-03-21T08:48:50.292Z,34.81
2018-03-21T08:50:00.543Z,34.63
2018-03-21T08:51:10.688Z,34.24
2018-03-21T08:52:20.887Z,34.24
2018-03-21T08:53:31.092Z,34.05
2018-03-21T08:54:41.007Z,33.01
2018-03-21T08:55:51.248Z,33.2
2018-03-21T08:57:01.420Z,33.49
2018-03-21T08:58:11.595Z,33.97
2018-03-21T08:59:21.793Z,33.87
2018-03-21T09:00:31.995Z,33.89
2018-03-21T09:01:41.952Z,32.07
2018-03-21T09:02:51.631Z,32.67
2018-03-21T09:04:01.386Z,31.8
2018-03-21T09:05:11.576Z,30.75
2018-03-21T09:06:21.750Z,30.36
2018-03-21T09:07:31.965Z,28.85
2018-03-21T09:08:41.628Z,28.94
2018-03-21T09:09:51.477Z,28.46
2018-03-21T09:11:01.680Z,28.17
2018-03-21T09:12:11.544Z,28.75
2018-03-21T09:13:21.168Z,29.23
2018-03-21T09:14:31.316Z,29.52
2018-03-21T09:15:41.430Z,29.9
2018-03-21T09:16:51.326Z,30
2018-03-21T09:18:01.596Z,29.53
2018-03-21T09:19:11.732Z,29.24
2018-03-21T09:20:21.910Z,28.57
2018-03-21T09:21:31.535Z,28.57
2018-03-21T09:22:41.705Z,28.19
2018-03-21T09:23:51.313Z,28.3
2018-03-21T09:25:01.519Z,27.53
2018-03-21T09:26:11.721Z,27.34
2018-03-21T09:27:21.401Z,27.25
2018-03-21T09:28:31.610Z,25.9
2018-03-21T09:29:41.770Z,25.9
2018-03-21T09:30:51.662Z,25.9
2018-03-21T09:32:01.604Z,25.99
2018-03-21T09:33:11.525Z,25.71
2018-03-21T09:34:21.431Z,25.71
2018-03-21T09:35:31.342Z,25.32
2018-03-21T09:36:41.221Z,25.52
2018-03-21T09:37:51.371Z,25.81
2018-03-21T09:39:01.076Z,25.52
2018-03-21T09:40:11.042Z,25.51
2018-03-21T09:41:21.223Z,24.94
2018-03-21T09:42:31.367Z,25.61
2018-03-21T09:43:41.510Z,25.04
2018-03-21T09:44:51.443Z,24.56
2018-03-21T09:46:01.596Z,24.64
2018-03-21T09:47:11.760Z,25.02
2018-03-21T09:48:21.896Z,25.41
2018-03-21T09:49:32.053Z,25.02
2018-03-21T09:50:41.952Z,24.56
2018-03-21T09:51:51.850Z,24.18
2018-03-21T09:53:01.995Z,24.46
2018-03-21T09:54:12.154Z,24.37
2018-03-21T09:55:22.346Z,24.75
2018-03-21T09:56:31.670Z,24.76
2018-03-21T09:57:42.207Z,24.38
2018-03-21T09:58:53.674Z,23.72
2018-03-21T10:00:06.971Z,23.33
2018-03-21T10:01:17.159Z,22.66
2018-03-21T10:02:28.491Z,23.24
2018-03-21T10:03:38.634Z,22.38
2018-03-21T10:04:49.474Z,23.03
2018-03-21T10:05:59.622Z,23.61
2018-03-21T10:07:10.603Z,23.32
2018-03-21T10:08:20.839Z,23.13
2018-03-21T10:09:31.143Z,22.08
2018-03-21T10:10:41.361Z,21.68
2018-03-21T10:11:51.248Z,22.64
2018-03-21T10:13:01.399Z,23.21
2018-03-21T10:14:11.575Z,23.58
2018-03-21T10:15:21.845Z,23.21
2018-03-21T10:16:32.014Z,23.39
2018-03-21T10:17:42.268Z,24.07
2018-03-21T10:18:52.498Z,24.55
2018-03-21T10:20:02.692Z,24.45
2018-03-21T10:21:12.955Z,24.64
2018-03-21T10:22:23.114Z,24.74
2018-03-21T10:23:33.308Z,24.35
2018-03-21T10:24:43.567Z,23.97
2018-03-21T10:25:53.726Z,24.16
2018-03-21T10:27:03.896Z,23.69
2018-03-21T10:28:15.229Z,23.6
2018-03-21T10:29:26.184Z,23.21
2018-03-21T10:30:35.827Z,23.41
2018-03-21T10:31:45.994Z,23.6
2018-03-21T10:32:56.179Z,23.58
2018-03-21T10:34:06.117Z,24.35
2018-03-21T10:35:16.282Z,24.26
2018-03-21T10:36:26.412Z,24.24
2018-03-21T10:37:36.322Z,24.63
2018-03-21T10:38:46.201Z,25.01
2018-03-21T10:39:56.466Z,25.3
2018-03-21T10:41:06.677Z,25.68
2018-03-21T10:42:16.930Z,26.16
2018-03-21T10:43:27.093Z,25.86
2018-03-21T10:44:36.926Z,25.67
2018-03-21T10:45:47.192Z,25.86
2018-03-21T10:46:57.089Z,26.34
2018-03-21T10:48:07.270Z,26.34
2018-03-21T10:49:17.480Z,26.52
2018-03-21T10:50:27.623Z,26.06
2018-03-21T10:51:37.764Z,26.23
2018-03-21T10:52:47.920Z,26.14
2018-03-21T10:53:58.147Z,26.62
2018-03-21T10:55:08.394Z,26.33
2018-03-21T10:56:18.651Z,27.27
2018-03-21T10:57:28.880Z,27.47
2018-03-21T10:58:39.075Z,27.75
2018-03-21T10:59:49.242Z,27.66
2018-03-21T11:00:59.433Z,27.56
2018-03-21T11:02:09.757Z,27.75
2018-03-21T11:03:19.660Z,27.56
2018-03-21T11:04:29.835Z,27.84
2018-03-21T11:05:40.046Z,27.67
2018-03-21T11:06:50.245Z,27.11
2018-03-21T11:08:00.111Z,27.2
2018-03-21T11:09:10.382Z,27.3
2018-03-21T11:10:20.515Z,26.72
2018-03-21T11:11:30.679Z,26.25
2018-03-21T11:12:40.374Z,26.25
2018-03-21T11:13:50.542Z,26.34
2018-03-21T11:15:00.785Z,26.63
2018-03-21T11:16:10.924Z,26.82
2018-03-21T11:17:21.071Z,27.3
2018-03-21T11:18:31.049Z,27.3
2018-03-21T11:19:41.200Z,27.38
2018-03-21T11:20:51.351Z,27.48
2018-03-21T11:22:01.163Z,27.67
2018-03-21T11:23:12.279Z,27.86
2018-03-21T11:24:22.494Z,27.87
2018-03-21T11:25:32.717Z,27.28
2018-03-21T11:26:42.535Z,27.38
2018-03-21T11:27:52.716Z,27.01
2018-03-21T11:29:03.014Z,27.3
2018-03-21T11:30:13.145Z,27.59
2018-03-21T11:31:22.788Z,27.59
2018-03-21T11:32:33.063Z,27.3
2018-03-21T11:33:43.394Z,26.53
2018-03-21T11:34:53.667Z,27.01
2018-03-21T11:36:03.820Z,27.3
2018-03-21T11:37:14.081Z,27.58
2018-03-21T11:38:24.278Z,28.15
2018-03-21T11:39:34.483Z,27.95
2018-03-21T11:40:44.671Z,28.34
2018-03-21T11:41:54.865Z,28.53
2018-03-21T11:43:05.013Z,28.52
2018-03-21T11:44:15.198Z,28.61
2018-03-21T11:45:25.100Z,29.01
2018-03-21T11:46:35.258Z,28.9
2018-03-21T11:47:45.144Z,28.9
2018-03-21T11:48:55.327Z,29.09
2018-03-21T11:50:05.479Z,29.09
2018-03-21T11:51:15.416Z,28.53
2018-03-21T11:52:25.599Z,28.24
2018-03-21T11:53:35.744Z,28.53
2018-03-21T11:54:45.885Z,29.01
2018-03-21T11:55:56.056Z,28.55
2018-03-21T11:57:05.837Z,27.87
2018-03-21T11:58:16.039Z,28.26
2018-03-21T11:59:26.273Z,27.49
2018-03-21T12:00:36.204Z,27.39
2018-03-21T12:01:46.087Z,27.87
2018-03-21T12:02:55.962Z,28.16
2018-03-21T12:04:06.214Z,28.45
2018-03-21T12:05:15.866Z,28.16
2018-03-21T12:06:26.013Z,27.87
2018-03-21T12:07:36.164Z,27.97
2018-03-21T12:08:46.745Z,28.16
2018-03-21T12:09:56.791Z,28.06
2018-03-21T12:11:07.029Z,27.89
2018-03-21T12:12:16.961Z,27.5
2018-03-21T12:13:27.117Z,27.89
2018-03-21T12:14:37.309Z,27.5
2018-03-21T12:15:47.542Z,27.89
2018-03-21T12:16:57.629Z,27.03
2018-03-21T12:18:07.547Z,27.41
2018-03-21T12:19:17.332Z,26.64
2018-03-21T12:20:27.142Z,26.74
2018-03-21T12:21:36.784Z,27.33
2018-03-21T12:22:47.448Z,27.22
2018-03-21T12:23:57.669Z,27.42
2018-03-21T12:25:07.818Z,26.94
2018-03-21T12:26:18.005Z,26.75
2018-03-21T12:27:28.129Z,26.85
2018-03-21T12:28:38.286Z,27.03
2018-03-21T12:29:48.574Z,27.5
2018-03-21T12:30:59.860Z,27.6
2018-03-21T12:32:10.020Z,27.03
2018-03-21T12:33:20.152Z,27.12
2018-03-21T12:34:30.299Z,27.89
2018-03-21T12:35:40.669Z,27.98
2018-03-21T12:36:50.909Z,28.28
2018-03-21T12:38:01.093Z,28.27
2018-03-21T12:39:11.304Z,28.27
2018-03-21T12:40:21.577Z,28.37
2018-03-21T12:41:31.749Z,28.48
2018-03-21T12:42:41.652Z,28.46
2018-03-21T12:43:51.834Z,28.75
2018-03-21T12:45:02.042Z,28.37
2018-03-21T12:46:12.268Z,28.46
2018-03-21T12:47:22.161Z,29.04
2018-03-21T12:48:31.739Z,28.35
2018-03-21T12:49:41.636Z,28.64
2018-03-21T12:50:51.294Z,29.02
2018-03-21T12:52:00.912Z,28.55
2018-03-21T12:53:11.163Z,28.45
2018-03-21T12:54:21.076Z,28.83
2018-03-21T12:55:31.224Z,28.81
2018-03-21T12:56:40.863Z,29.01
2018-03-21T12:57:50.758Z,28.81
2018-03-21T12:59:00.971Z,29.39
2018-03-21T13:00:10.882Z,29.58
2018-03-21T13:01:20.680Z,29.68
2018-03-21T13:02:30.954Z,29.57
2018-03-21T13:03:40.858Z,29.38
2018-03-21T13:04:50.757Z,29.19
2018-03-21T13:06:01.037Z,29.28
2018-03-21T13:07:11.284Z,28.9
2018-03-21T13:08:21.177Z,28.9
2018-03-21T13:09:31.337Z,29.19
2018-03-21T13:10:40.858Z,29.19
2018-03-21T13:11:50.524Z,29.47
2018-03-21T13:13:00.509Z,29.86
2018-03-21T13:14:10.163Z,29.94
2018-03-21T13:15:20.303Z,30.32
2018-03-21T13:16:30.469Z,30.22
2018-03-21T13:17:40.619Z,30.22
2018-03-21T13:18:50.659Z,30.61
2018-03-21T13:20:00.896Z,30.69
2018-03-21T13:21:10.786Z,30.69
2018-03-21T13:22:20.649Z,30.88
2018-03-21T13:23:30.853Z,31.07
2018-03-21T13:24:40.976Z,30.88
2018-03-21T13:25:50.860Z,30.86
2018-03-21T13:27:00.760Z,31.15
2018-03-21T13:28:10.543Z,31.34
2018-03-21T13:29:20.747Z,31.34
2018-03-21T13:30:30.678Z,31.8
2018-03-21T13:31:39.931Z,31.99
2018-03-21T13:32:49.825Z,31.99
2018-03-21T13:33:59.738Z,31.51
2018-03-21T13:35:09.880Z,32.09
2018-03-21T13:36:20.115Z,32.66
2018-03-21T13:37:30.344Z,31.99
2018-03-21T13:38:40.561Z,31.8
2018-03-21T13:39:50.788Z,32.28
2018-03-21T13:41:00.672Z,32.45
2018-03-21T13:42:10.844Z,32.65
2018-03-21T13:43:21.961Z,33.12
2018-03-21T13:44:32.109Z,33.7
2018-03-21T13:45:41.990Z,33.79
2018-03-21T13:46:52.179Z,33.98
2018-03-21T13:48:02.347Z,34.08
2018-03-21T13:49:12.535Z,33.79
2018-03-21T13:50:22.773Z,33.79
2018-03-21T13:51:32.736Z,33.97
2018-03-21T13:52:42.623Z,34.25
2018-03-21T13:53:52.840Z,33.87
2018-03-21T13:55:03.058Z,33.97
2018-03-21T13:56:13.238Z,33.78
2018-03-21T13:57:23.479Z,33.68
2018-03-21T13:58:33.667Z,33.87
2018-03-21T13:59:43.864Z,33.87
2018-03-21T14:00:53.502Z,34.54
2018-03-21T14:02:03.411Z,34.25
2018-03-21T14:03:13.652Z,34.06
2018-03-21T14:04:23.528Z,34.23
2018-03-21T14:05:33.689Z,34.16
2018-03-21T14:06:43.581Z,34.25
2018-03-21T14:07:53.752Z,33.76
2018-03-21T14:09:03.744Z,33.85
2018-03-21T14:10:13.919Z,34.05
2018-03-21T14:11:23.735Z,34.52
2018-03-21T14:12:33.640Z,34.33
2018-03-21T14:13:44.421Z,34.23
2018-03-21T14:14:54.321Z,34.61
2018-03-21T14:16:04.495Z,34.42
2018-03-21T14:17:14.648Z,34.61
2018-03-21T14:18:24.780Z,34.81
2018-03-21T14:19:34.971Z,34.81
2018-03-21T14:20:44.741Z,35.08
2018-03-21T14:21:54.960Z,35.17
2018-03-21T14:23:04.518Z,35.08
2018-03-21T14:24:14.691Z,35
2018-03-21T14:25:24.883Z,35.1
2018-03-21T14:26:34.801Z,35.47
2018-03-21T14:27:44.997Z,35.47
2018-03-21T14:28:55.208Z,35.66
2018-03-21T14:30:05.257Z,35.76
2018-03-21T14:31:15.594Z,36.14
2018-03-21T14:32:26.882Z,35.95
2018-03-21T14:33:37.085Z,35.95
2018-03-21T14:34:47.023Z,36.05
2018-03-21T14:35:56.547Z,35.66
2018-03-21T14:37:06.769Z,35
2018-03-21T14:38:16.407Z,35.47
2018-03-21T14:39:26.570Z,35.84
2018-03-21T14:40:36.473Z,36.14
2018-03-21T14:41:46.750Z,36.24
2018-03-21T14:42:56.387Z,36.62
2018-03-21T14:44:06.537Z,36.98
2018-03-21T14:45:16.694Z,36.88
2018-03-21T14:46:26.881Z,36.88
2018-03-21T14:47:37.110Z,36.98
2018-03-21T14:48:46.149Z,37.36
2018-03-21T14:49:56.024Z,37.55
2018-03-21T14:51:06.179Z,37.74
2018-03-21T14:52:15.444Z,37.74
2018-03-21T14:53:25.617Z,37.93
2018-03-21T14:54:35.759Z,37.84
2018-03-21T14:55:46.923Z,37.84
2018-03-21T14:56:57.129Z,38.22
2018-03-21T14:58:07.297Z,38.1
2018-03-21T14:59:17.201Z,38.2
2018-03-21T15:00:27.083Z,38.39
2018-03-21T15:01:37.300Z,38.2
2018-03-21T15:02:47.230Z,38.1
2018-03-21T15:03:57.434Z,38.58
2018-03-21T15:05:07.361Z,38.68